Time;durP1;ratioP1;P1;durP2;ratioP2;P2;SDS_P1;SDS_P2;PMS_P1;PMS_P2;Temp;Humidity;BMP_temperature;BMP_pressure;BME280_temperature;BME280_humidity;BME280_pressure;Samples;Min_cycle;Max_cycle;Signal;HPM_P1;HPM_P2
2021/12/10 00:00:30;;;;;;;63.60;28.10;;;2.10;99.90;;;;;;5038596;28;20219;-44
2021/12/10 00:02:57;;;;;;;74.03;28.53;;;2.10;99.90;;;;;;5045710;28;20210;-44
2021/12/10 00:05:28;;;;;;;60.07;27.70;;;2.10;99.90;;;;;;5039183;28;20203;-44
2021/12/10 00:07:56;;;;;;;76.87;28.30;;;2.10;99.90;;;;;;5047470;28;20207;-43
2021/12/10 00:10:25;;;;;;;69.50;28.27;;;2.10;99.90;;;;;;5042579;28;20314;-43
2021/12/10 00:12:53;;;;;;;65.47;27.50;;;2.10;99.90;;;;;;5045996;28;20203;-46
2021/12/10 00:15:23;;;;;;;61.20;27.60;;;2.00;99.90;;;;;;5036467;28;20207;-44
2021/12/10 00:17:52;;;;;;;58.57;26.23;;;2.00;99.90;;;;;;5048665;28;20198;-44
2021/12/10 00:20:20;;;;;;;61.57;27.47;;;2.00;99.90;;;;;;5050790;28;20198;-46
2021/12/10 00:22:53;;;;;;;57.03;25.27;;;2.00;99.90;;;;;;5055474;28;20210;-49
2021/12/10 00:25:24;;;;;;;69.47;28.33;;;2.00;99.90;;;;;;5044478;28;20289;-45
2021/12/10 00:27:54;;;;;;;71.70;28.27;;;2.00;99.90;;;;;;5045646;28;20289;-45
2021/12/10 00:30:26;;;;;;;69.27;27.70;;;2.00;99.90;;;;;;5033844;28;20207;-45
2021/12/10 00:33:03;;;;;;;69.23;27.33;;;2.00;99.90;;;;;;5052548;28;20211;-44
2021/12/10 00:35:33;;;;;;;64.27;28.27;;;2.00;99.90;;;;;;5041789;28;20202;-43
2021/12/10 00:38:00;;;;;;;79.27;28.03;;;2.00;99.90;;;;;;5054404;28;20199;-45
2021/12/10 00:40:28;;;;;;;69.00;28.30;;;2.00;99.90;;;;;;5050930;28;20201;-48
2021/12/10 00:42:55;;;;;;;63.93;27.10;;;2.10;99.90;;;;;;5064799;28;20203;-44
2021/12/10 00:45:26;;;;;;;65.17;28.67;;;2.00;99.90;;;;;;5047506;28;20258;-45
2021/12/10 00:47:53;;;;;;;64.57;27.63;;;2.00;99.90;;;;;;5053218;28;20260;-43
2021/12/10 00:50:22;;;;;;;67.00;26.70;;;2.00;99.90;;;;;;5046099;28;20210;-46
2021/12/10 00:52:49;;;;;;;73.83;29.17;;;2.00;99.90;;;;;;5050955;28;20201;-44
2021/12/10 00:55:18;;;;;;;64.80;26.53;;;2.00;99.90;;;;;;5043322;28;20227;-43
2021/12/10 00:57:45;;;;;;;68.83;28.60;;;2.00;99.90;;;;;;5044732;28;20200;-43
2021/12/10 01:00:16;;;;;;;66.27;28.20;;;2.00;99.90;;;;;;5037644;28;20232;-46
2021/12/10 01:02:44;;;;;;;69.60;27.63;;;2.00;99.90;;;;;;5047426;28;20201;-45
2021/12/10 01:05:13;;;;;;;74.43;28.57;;;2.00;99.90;;;;;;5054265;28;20207;-47
2021/12/10 01:07:40;;;;;;;67.53;26.60;;;2.00;99.90;;;;;;5043172;28;20903;-45
2021/12/10 01:10:12;;;;;;;71.90;27.70;;;2.00;99.90;;;;;;5044972;28;20227;-44
2021/12/10 01:12:42;;;;;;;69.27;27.43;;;2.00;99.90;;;;;;5042793;28;20184;-49
2021/12/10 01:15:35;;;;;;;61.13;27.40;;;2.00;99.90;;;;;;5042304;28;20215;-44
2021/12/10 01:23:48;;;;;;;63.67;27.37;;;2.10;99.90;;;;;;5042662;28;20218;-45
2021/12/10 01:26:26;;;;;;;63.57;27.40;;;2.10;99.90;;;;;;5056502;28;20651;-46
2021/12/10 01:28:56;;;;;;;68.50;27.00;;;2.10;99.90;;;;;;5063940;28;20226;-47
2021/12/10 01:31:23;;;;;;;60.23;25.63;;;2.10;99.90;;;;;;5048740;28;20614;-46
2021/12/10 01:33:52;;;;;;;64.93;27.27;;;2.10;99.90;;;;;;5052492;28;20222;-47
2021/12/10 01:36:19;;;;;;;63.50;27.53;;;2.10;99.90;;;;;;5054093;28;20203;-43
2021/12/10 01:38:50;;;;;;;64.40;27.83;;;2.10;99.90;;;;;;5045676;28;20710;-44
2021/12/10 01:41:19;;;;;;;62.73;27.80;;;2.10;99.90;;;;;;5042667;28;20289;-47
2021/12/10 01:43:51;;;;;;;64.63;27.93;;;2.10;99.90;;;;;;5049567;28;20230;-43
2021/12/10 01:46:25;;;;;;;67.60;28.03;;;2.10;99.90;;;;;;5048252;28;20534;-49
2021/12/10 01:48:55;;;;;;;66.53;28.43;;;2.10;99.90;;;;;;5044353;28;20706;-43
2021/12/10 01:51:24;;;;;;;65.83;27.53;;;2.10;99.90;;;;;;5043509;28;20200;-46
2021/12/10 01:53:55;;;;;;;61.10;26.87;;;2.10;99.90;;;;;;5044242;28;20207;-45
2021/12/10 01:56:26;;;;;;;61.20;25.93;;;2.10;99.90;;;;;;5040796;28;20204;-44
2021/12/10 01:58:54;;;;;;;65.03;26.63;;;2.10;99.90;;;;;;5044001;28;20226;-47
2021/12/10 02:01:23;;;;;;;64.50;27.03;;;2.10;99.90;;;;;;5041354;28;20202;-46
2021/12/10 02:03:54;;;;;;;64.10;27.50;;;2.10;99.90;;;;;;5049080;28;20581;-44
2021/12/10 02:06:22;;;;;;;65.00;26.70;;;2.10;99.90;;;;;;5048932;28;20206;-46
2021/12/10 02:08:49;;;;;;;63.97;26.10;;;2.10;99.90;;;;;;5051892;28;20229;-47
2021/12/10 02:11:17;;;;;;;61.90;26.90;;;2.10;99.90;;;;;;5042029;28;20203;-44
2021/12/10 02:13:44;;;;;;;60.57;25.67;;;2.10;99.90;;;;;;5041105;28;20229;-45
2021/12/10 02:16:11;;;;;;;68.20;26.47;;;2.10;99.90;;;;;;5048246;28;20194;-45
2021/12/10 02:18:38;;;;;;;63.13;26.77;;;2.10;99.90;;;;;;5058989;28;20218;-43
2021/12/10 02:21:17;;;;;;;60.43;26.53;;;2.10;99.90;;;;;;5048941;28;20186;-43
2021/12/10 02:23:48;;;;;;;58.93;25.70;;;2.10;99.90;;;;;;5047033;28;20317;-43
2021/12/10 02:26:16;;;;;;;56.43;24.67;;;2.10;99.90;;;;;;5043248;28;20198;-44
2021/12/10 02:28:43;;;;;;;62.60;25.53;;;2.10;99.90;;;;;;5041737;28;20219;-47
2021/12/10 02:31:12;;;;;;;64.30;26.97;;;2.10;99.90;;;;;;5042258;28;20199;-44
2021/12/10 02:33:39;;;;;;;60.13;25.73;;;2.10;99.90;;;;;;5047256;28;20238;-44
2021/12/10 02:36:10;;;;;;;63.07;25.70;;;2.10;99.90;;;;;;5042055;28;20210;-44
2021/12/10 02:38:38;;;;;;;69.37;26.37;;;2.10;99.90;;;;;;5050185;28;20219;-46
2021/12/10 02:41:05;;;;;;;59.10;25.03;;;2.10;99.90;;;;;;5039906;28;20206;-44
2021/12/10 02:43:32;;;;;;;57.87;25.63;;;2.10;99.90;;;;;;5053018;28;20286;-44
2021/12/10 02:45:59;;;;;;;58.63;24.83;;;2.10;99.90;;;;;;5044711;28;20222;-47
2021/12/10 02:48:26;;;;;;;59.07;26.70;;;2.10;99.90;;;;;;5043776;28;20234;-43
2021/12/10 02:50:55;;;;;;;60.87;23.63;;;2.10;99.90;;;;;;5030095;28;20207;-43
2021/12/10 02:53:27;;;;;;;63.70;25.87;;;2.10;99.90;;;;;;5053175;28;20261;-44
2021/12/10 02:55:55;;;;;;;51.80;24.83;;;2.10;99.90;;;;;;5048576;28;20233;-45
2021/12/10 02:58:22;;;;;;;57.73;24.57;;;2.10;99.90;;;;;;5050355;28;20222;-44
2021/12/10 03:00:54;;;;;;;63.13;25.73;;;2.10;99.90;;;;;;5042368;28;20576;-45
2021/12/10 03:03:21;;;;;;;56.83;25.43;;;2.10;99.90;;;;;;5043479;28;20199;-44
2021/12/10 03:05:49;;;;;;;55.63;24.77;;;2.10;99.90;;;;;;5036296;28;20238;-44
2021/12/10 03:08:16;;;;;;;56.17;24.73;;;2.10;99.90;;;;;;5049932;28;20215;-45
2021/12/10 03:10:43;;;;;;;58.73;25.17;;;2.10;99.90;;;;;;5040987;28;20237;-43
2021/12/10 03:13:12;;;;;;;60.83;24.77;;;2.10;99.90;;;;;;5041492;28;20198;-46
2021/12/10 03:15:39;;;;;;;58.60;24.63;;;2.10;99.90;;;;;;5056767;28;20552;-44
2021/12/10 03:18:09;;;;;;;57.07;24.70;;;2.10;99.90;;;;;;5047666;28;20193;-45
2021/12/10 03:20:36;;;;;;;56.97;24.43;;;2.10;99.90;;;;;;5045352;28;20205;-44
2021/12/10 03:23:04;;;;;;;53.23;23.50;;;2.20;99.90;;;;;;5046474;28;20211;-44
2021/12/10 03:25:31;;;;;;;56.10;24.57;;;2.20;99.90;;;;;;5058776;28;20279;-45
2021/12/10 03:27:58;;;;;;;59.40;24.73;;;2.10;99.90;;;;;;5045825;28;20204;-48
2021/12/10 03:30:30;;;;;;;59.90;24.93;;;2.20;99.90;;;;;;5058824;28;20211;-41
2021/12/10 03:32:57;;;;;;;57.63;24.40;;;2.20;99.90;;;;;;5061929;28;20202;-44
2021/12/10 03:35:28;;;;;;;53.57;25.13;;;2.10;99.90;;;;;;5053616;28;20734;-40
2021/12/10 03:37:55;;;;;;;64.90;26.87;;;2.10;99.90;;;;;;5041108;28;20791;-41
2021/12/10 03:40:21;;;;;;;60.23;24.37;;;2.20;99.90;;;;;;5051985;28;20198;-44
2021/12/10 03:42:50;;;;;;;69.43;27.30;;;2.10;99.90;;;;;;5043536;28;20214;-40
2021/12/10 03:45:18;;;;;;;58.93;25.17;;;2.10;99.90;;;;;;5065702;28;20198;-41
2021/12/10 03:47:46;;;;;;;52.70;22.90;;;2.10;99.90;;;;;;5049597;28;20904;-41
2021/12/10 03:50:22;;;;;;;59.73;26.10;;;2.10;99.90;;;;;;5065559;28;20226;-41
2021/12/10 03:52:49;;;;;;;61.30;24.73;;;2.10;99.90;;;;;;5048665;28;20202;-43
2021/12/10 03:55:16;;;;;;;59.53;24.23;;;2.10;99.90;;;;;;5053612;28;20698;-42
2021/12/10 03:57:43;;;;;;;59.77;25.63;;;2.10;99.90;;;;;;5046113;28;20282;-41
2021/12/10 04:00:11;;;;;;;60.80;26.20;;;2.10;99.90;;;;;;5059957;28;20222;-41
2021/12/10 04:02:38;;;;;;;64.97;24.20;;;2.10;99.90;;;;;;5062799;28;20223;-40
2021/12/10 04:05:06;;;;;;;56.67;23.87;;;2.10;99.90;;;;;;5064945;28;20201;-41
2021/12/10 04:07:33;;;;;;;56.77;25.23;;;2.00;99.90;;;;;;5057698;28;20206;-41
2021/12/10 04:10:00;;;;;;;59.53;24.47;;;2.10;99.90;;;;;;5054968;28;20225;-41
2021/12/10 04:12:26;;;;;;;59.57;25.83;;;2.10;99.90;;;;;;5058918;28;20203;-41
2021/12/10 04:14:54;;;;;;;67.47;26.87;;;2.10;99.90;;;;;;5044859;28;20749;-44
2021/12/10 04:17:22;;;;;;;55.47;24.70;;;2.00;99.90;;;;;;5049455;28;20663;-40
2021/12/10 04:19:51;;;;;;;56.27;23.37;;;2.10;99.90;;;;;;5049856;28;20230;-40
2021/12/10 04:22:20;;;;;;;55.53;24.90;;;2.00;99.90;;;;;;5044369;28;20199;-46
2021/12/10 04:24:47;;;;;;;59.83;25.07;;;2.00;99.90;;;;;;5041350;28;20215;-41
2021/12/10 04:27:15;;;;;;;55.03;25.40;;;2.00;99.90;;;;;;5041442;28;20199;-41
2021/12/10 04:29:43;;;;;;;56.63;23.83;;;2.00;99.90;;;;;;5049175;28;20230;-40
2021/12/10 04:32:13;;;;;;;55.63;23.20;;;2.00;99.90;;;;;;5046501;28;20905;-41
2021/12/10 04:34:40;;;;;;;56.40;23.87;;;2.00;99.90;;;;;;5053431;28;20223;-40
2021/12/10 04:37:10;;;;;;;62.83;24.40;;;2.00;99.90;;;;;;5041485;28;20246;-40
2021/12/10 04:39:44;;;;;;;52.23;21.07;;;2.00;99.90;;;;;;5040168;28;20230;-40
2021/12/10 04:42:11;;;;;;;53.37;22.73;;;2.00;99.90;;;;;;5056577;28;20809;-41
2021/12/10 04:44:38;;;;;;;53.90;23.20;;;2.00;99.90;;;;;;5058694;28;20880;-41
2021/12/10 04:47:05;;;;;;;56.27;24.57;;;2.00;99.90;;;;;;5043572;28;20214;-41
2021/12/10 04:49:32;;;;;;;58.23;23.40;;;2.00;99.90;;;;;;5049845;28;20294;-41
2021/12/10 04:51:59;;;;;;;59.60;23.93;;;2.00;99.90;;;;;;5043233;28;20199;-41
2021/12/10 04:54:27;;;;;;;54.67;24.13;;;2.00;99.90;;;;;;5044613;28;20206;-44
2021/12/10 04:56:58;;;;;;;51.77;22.67;;;2.00;99.90;;;;;;5042891;28;20218;-41
2021/12/10 04:59:27;;;;;;;53.20;22.73;;;2.00;99.90;;;;;;5055021;28;20230;-45
2021/12/10 05:01:56;;;;;;;59.77;23.67;;;2.00;99.90;;;;;;5047796;28;20568;-41
2021/12/10 05:04:24;;;;;;;59.13;23.63;;;2.00;99.90;;;;;;5054050;28;20195;-41
2021/12/10 05:06:51;;;;;;;61.20;24.20;;;2.00;99.90;;;;;;5056423;28;20211;-39
2021/12/10 05:09:20;;;;;;;50.87;23.37;;;2.00;99.90;;;;;;5058582;28;20219;-39
2021/12/10 05:11:46;;;;;;;58.00;22.83;;;2.10;99.90;;;;;;5042441;28;20290;-41
2021/12/10 05:14:15;;;;;;;53.90;23.63;;;2.00;99.90;;;;;;5047722;28;20206;-41
2021/12/10 05:16:44;;;;;;;55.27;23.43;;;2.00;99.90;;;;;;5054624;28;20614;-42
2021/12/10 05:19:13;;;;;;;53.10;23.17;;;2.00;99.90;;;;;;5046604;28;20222;-43
2021/12/10 05:21:41;;;;;;;57.40;23.37;;;2.00;99.90;;;;;;5055767;28;20560;-41
2021/12/10 05:24:10;;;;;;;54.60;23.80;;;2.00;99.90;;;;;;5043933;28;20980;-40
2021/12/10 05:26:37;;;;;;;47.53;21.20;;;2.10;99.90;;;;;;5043065;28;20207;-40
2021/12/10 05:29:05;;;;;;;54.43;22.80;;;2.00;99.90;;;;;;5050698;28;20215;-40
2021/12/10 05:31:33;;;;;;;54.73;23.70;;;2.00;99.90;;;;;;5047478;28;20198;-44
2021/12/10 05:34:00;;;;;;;54.70;23.43;;;2.00;99.90;;;;;;5047017;28;20199;-41
2021/12/10 05:36:27;;;;;;;47.53;22.17;;;2.00;99.90;;;;;;5043277;28;20211;-41
2021/12/10 05:38:53;;;;;;;58.87;23.33;;;2.10;99.90;;;;;;5044447;28;21176;-41
2021/12/10 05:41:20;;;;;;;47.47;21.67;;;2.10;99.90;;;;;;5044862;28;20241;-42
2021/12/10 05:43:47;;;;;;;50.87;21.07;;;2.10;99.90;;;;;;5053994;28;20202;-43
2021/12/10 05:46:16;;;;;;;54.60;22.47;;;2.10;99.90;;;;;;5045089;28;20192;-41
2021/12/10 05:48:45;;;;;;;51.70;21.47;;;2.10;99.90;;;;;;5056185;28;20227;-41
2021/12/10 05:51:12;;;;;;;55.07;22.07;;;2.10;99.90;;;;;;5048790;28;20225;-43
2021/12/10 05:53:39;;;;;;;43.70;21.53;;;2.10;99.90;;;;;;5055233;28;20200;-41
2021/12/10 05:56:06;;;;;;;47.73;20.93;;;2.10;99.90;;;;;;5047392;28;20218;-40
2021/12/10 05:58:34;;;;;;;48.80;21.40;;;2.10;99.90;;;;;;5039633;28;20233;-45
2021/12/10 06:01:04;;;;;;;49.47;21.00;;;2.10;99.90;;;;;;5043190;28;20206;-41
2021/12/10 06:03:32;;;;;;;48.17;21.30;;;2.00;99.90;;;;;;5052470;28;20198;-41
2021/12/10 06:06:01;;;;;;;53.50;23.33;;;2.00;99.90;;;;;;5044098;28;20229;-41
2021/12/10 06:08:28;;;;;;;57.73;22.73;;;2.10;99.90;;;;;;5053055;28;20213;-45
2021/12/10 06:10:56;;;;;;;47.33;21.03;;;2.00;99.90;;;;;;5050998;28;20209;-42
2021/12/10 06:13:23;;;;;;;48.53;21.23;;;2.00;99.90;;;;;;5036022;28;20913;-41
2021/12/10 06:15:50;;;;;;;44.67;21.27;;;1.90;99.90;;;;;;5053461;28;20233;-40
2021/12/10 06:18:17;;;;;;;48.23;21.53;;;1.90;99.90;;;;;;5046602;28;20215;-43
2021/12/10 06:20:47;;;;;;;40.57;19.07;;;1.80;99.90;;;;;;5061182;28;20205;-40
2021/12/10 06:23:17;;;;;;;42.97;19.57;;;1.80;99.90;;;;;;5059702;28;20198;-40
2021/12/10 06:25:44;;;;;;;46.83;22.60;;;1.70;99.90;;;;;;5056836;28;20194;-43
2021/12/10 06:28:11;;;;;;;47.27;20.67;;;1.70;99.90;;;;;;5034024;28;20327;-40
2021/12/10 06:30:39;;;;;;;52.77;21.60;;;1.70;99.90;;;;;;5057419;28;20542;-42
2021/12/10 06:33:09;;;;;;;43.97;19.97;;;1.60;99.90;;;;;;5041438;28;20520;-40
2021/12/10 06:35:39;;;;;;;50.00;20.47;;;1.60;99.90;;;;;;5049314;28;20629;-40
2021/12/10 06:38:06;;;;;;;43.30;20.40;;;1.60;99.90;;;;;;5040459;28;20200;-40
2021/12/10 06:40:37;;;;;;;46.10;20.97;;;1.50;99.90;;;;;;5048463;28;20203;-40
2021/12/10 06:43:04;;;;;;;46.57;19.73;;;1.50;99.90;;;;;;5032686;28;20203;-41
2021/12/10 06:45:32;;;;;;;49.43;20.43;;;1.50;99.90;;;;;;5053126;28;20213;-41
2021/12/10 06:48:02;;;;;;;51.87;21.17;;;1.50;99.90;;;;;;5042842;28;20674;-40
2021/12/10 06:50:32;;;;;;;48.93;22.00;;;1.40;99.90;;;;;;5051693;28;20210;-40
2021/12/10 06:52:59;;;;;;;41.23;19.97;;;1.40;99.90;;;;;;5054347;28;20197;-40
2021/12/10 06:55:27;;;;;;;46.23;20.67;;;1.40;99.90;;;;;;5045112;28;20205;-42
2021/12/10 06:57:56;;;;;;;40.07;19.67;;;1.40;99.90;;;;;;5053734;28;20203;-40
2021/12/10 07:00:27;;;;;;;44.17;20.77;;;1.40;99.90;;;;;;5036192;28;20207;-41
2021/12/10 07:02:54;;;;;;;51.03;20.97;;;1.40;99.90;;;;;;5050982;28;20205;-40
2021/12/10 07:05:21;;;;;;;48.30;21.43;;;1.40;99.90;;;;;;5044457;28;20195;-40
2021/12/10 07:07:48;;;;;;;49.10;21.30;;;1.40;99.90;;;;;;5051920;28;20210;-40
2021/12/10 07:10:17;;;;;;;50.43;22.07;;;1.40;99.90;;;;;;5054078;28;20207;-41
2021/12/10 07:12:45;;;;;;;51.33;21.63;;;1.40;99.90;;;;;;5047865;28;20193;-40
2021/12/10 07:15:16;;;;;;;52.73;20.87;;;1.40;99.90;;;;;;5035278;28;20211;-40
2021/12/10 07:17:45;;;;;;;47.03;21.90;;;1.50;99.90;;;;;;5051572;28;20780;-40
2021/12/10 07:20:13;;;;;;;47.63;22.10;;;1.50;99.90;;;;;;5045848;28;20234;-39
2021/12/10 07:22:40;;;;;;;51.17;20.73;;;1.50;99.90;;;;;;5043274;28;20210;-39
2021/12/10 07:25:09;;;;;;;55.63;20.57;;;1.50;99.90;;;;;;5042459;28;21002;-40
2021/12/10 07:27:36;;;;;;;52.73;21.17;;;1.50;99.90;;;;;;5034819;28;20296;-40
2021/12/10 07:30:06;;;;;;;48.13;21.10;;;1.60;99.90;;;;;;5044849;28;20584;-42
2021/12/10 07:32:35;;;;;;;50.60;21.37;;;1.60;99.90;;;;;;5040497;28;20847;-41
2021/12/10 07:35:02;;;;;;;47.13;20.97;;;1.60;99.90;;;;;;5055095;28;20782;-39
2021/12/10 07:37:28;;;;;;;59.37;22.47;;;1.60;99.90;;;;;;5060945;28;20985;-40
2021/12/10 07:39:55;;;;;;;50.73;20.73;;;1.60;99.90;;;;;;5057921;28;20219;-40
2021/12/10 07:42:22;;;;;;;48.50;21.50;;;1.60;99.90;;;;;;5049344;28;20210;-40
2021/12/10 07:44:50;;;;;;;47.53;20.47;;;1.70;99.90;;;;;;5046774;28;20210;-41
2021/12/10 07:47:17;;;;;;;56.03;22.60;;;1.70;99.90;;;;;;5040409;28;20291;-42
2021/12/10 07:49:45;;;;;;;45.77;20.83;;;1.70;99.90;;;;;;5042998;28;20227;-42
2021/12/10 07:52:18;;;;;;;52.00;21.53;;;1.70;99.90;;;;;;5043428;28;20203;-40
2021/12/10 07:54:47;;;;;;;48.13;22.43;;;1.70;99.90;;;;;;5057607;28;20674;-43
2021/12/10 07:57:15;;;;;;;58.63;22.13;;;1.70;99.90;;;;;;5053352;28;20276;-40
2021/12/10 07:59:42;;;;;;;48.10;20.63;;;1.80;99.90;;;;;;5049554;28;20237;-42
2021/12/10 08:02:08;;;;;;;50.40;21.17;;;1.80;99.90;;;;;;5040392;28;20692;-40
2021/12/10 08:04:36;;;;;;;49.67;21.70;;;1.80;99.90;;;;;;5052137;28;20217;-41
2021/12/10 08:07:05;;;;;;;56.20;22.97;;;1.80;99.90;;;;;;5055639;28;20194;-43
2021/12/10 08:09:32;;;;;;;55.67;21.17;;;1.80;99.90;;;;;;5059274;28;20965;-40
2021/12/10 08:11:59;;;;;;;56.07;22.63;;;1.80;99.90;;;;;;5052477;28;20214;-43
2021/12/10 08:14:25;;;;;;;51.20;22.20;;;1.80;99.90;;;;;;5048962;28;20203;-40
2021/12/10 08:16:52;;;;;;;55.17;22.50;;;1.80;99.90;;;;;;5044530;28;20226;-40
2021/12/10 08:19:19;;;;;;;55.60;21.93;;;1.90;99.90;;;;;;5049282;28;20220;-41
2021/12/10 08:21:46;;;;;;;56.77;21.77;;;1.90;99.90;;;;;;5047449;28;20675;-42
2021/12/10 08:24:14;;;;;;;55.80;23.13;;;1.90;99.90;;;;;;5053217;28;20198;-43
2021/12/10 08:26:40;;;;;;;53.33;22.53;;;1.90;99.90;;;;;;5055029;28;20205;-43
2021/12/10 08:29:08;;;;;;;53.27;22.57;;;1.90;99.90;;;;;;5048989;28;20227;-40
2021/12/10 08:31:35;;;;;;;49.97;21.83;;;1.90;99.90;;;;;;5051903;28;20191;-41
2021/12/10 08:34:02;;;;;;;46.63;21.47;;;1.90;99.90;;;;;;5046597;28;20659;-41
2021/12/10 08:36:29;;;;;;;52.73;22.27;;;1.90;99.90;;;;;;5052350;28;20324;-40
2021/12/10 08:38:56;;;;;;;57.27;23.43;;;1.90;99.90;;;;;;5053105;28;20218;-40
2021/12/10 08:41:27;;;;;;;55.33;22.77;;;2.00;99.90;;;;;;5048230;28;20241;-42
2021/12/10 08:43:56;;;;;;;52.33;21.47;;;2.00;99.90;;;;;;5048727;28;20212;-40
2021/12/10 08:46:23;;;;;;;54.17;22.83;;;2.00;99.90;;;;;;5052521;28;20190;-42
2021/12/10 08:48:50;;;;;;;57.07;23.43;;;2.00;99.90;;;;;;5045524;28;20233;-42
2021/12/10 08:51:21;;;;;;;57.03;23.27;;;2.00;99.90;;;;;;5049938;28;20202;-40
2021/12/10 08:53:48;;;;;;;50.20;20.57;;;2.00;99.90;;;;;;5056157;28;20663;-40
2021/12/10 08:56:16;;;;;;;51.67;22.10;;;2.00;99.90;;;;;;5055682;28;20214;-42
2021/12/10 08:58:44;;;;;;;48.50;19.77;;;2.10;99.90;;;;;;5049215;28;20592;-40
2021/12/10 09:01:15;;;;;;;48.63;20.40;;;2.10;99.90;;;;;;5048963;28;20206;-40
2021/12/10 09:03:42;;;;;;;52.50;21.50;;;2.10;99.90;;;;;;5044404;28;20214;-40
2021/12/10 09:06:10;;;;;;;43.10;19.43;;;2.10;99.90;;;;;;5048066;28;20198;-44
2021/12/10 09:08:38;;;;;;;48.77;19.53;;;2.10;99.90;;;;;;5055827;28;20246;-39
2021/12/10 09:11:05;;;;;;;51.33;21.03;;;2.10;99.90;;;;;;5060879;28;20201;-39
2021/12/10 09:13:32;;;;;;;44.27;19.90;;;2.10;99.90;;;;;;5056119;28;20221;-40
2021/12/10 09:16:05;;;;;;;48.57;20.83;;;2.20;99.90;;;;;;5049558;28;20723;-39
2021/12/10 09:18:33;;;;;;;50.67;21.37;;;2.20;99.90;;;;;;5059859;28;20229;-42
2021/12/10 09:21:02;;;;;;;44.67;20.10;;;2.20;99.90;;;;;;5038284;28;20251;-40
2021/12/10 09:23:29;;;;;;;45.23;19.77;;;2.20;99.90;;;;;;5060337;28;20194;-41
2021/12/10 09:26:02;;;;;;;43.93;18.87;;;2.30;99.90;;;;;;5050057;28;20202;-40
2021/12/10 09:28:29;;;;;;;47.13;19.20;;;2.30;99.90;;;;;;5048869;28;20444;-40
2021/12/10 09:31:03;;;;;;;42.90;19.00;;;2.30;99.90;;;;;;5045488;28;20204;-39
2021/12/10 09:33:31;;;;;;;41.60;18.50;;;2.30;99.90;;;;;;5052562;28;20402;-41
2021/12/10 09:35:59;;;;;;;41.03;18.03;;;2.30;99.90;;;;;;5045381;28;20207;-39
2021/12/10 09:38:26;;;;;;;42.97;18.77;;;2.40;99.90;;;;;;5047401;28;20219;-42
2021/12/10 09:40:57;;;;;;;43.13;18.30;;;2.40;99.90;;;;;;5050743;28;20190;-40
2021/12/10 09:43:25;;;;;;;42.47;18.20;;;2.40;99.90;;;;;;5046182;28;22040;-39
2021/12/10 09:45:54;;;;;;;38.17;18.77;;;2.40;99.90;;;;;;5057041;28;20195;-41
2021/12/10 09:48:24;;;;;;;36.90;16.40;;;2.50;99.90;;;;;;5045027;28;20523;-39
2021/12/10 09:50:55;;;;;;;49.97;18.80;;;2.50;99.90;;;;;;5041722;28;20207;-39
2021/12/10 09:53:23;;;;;;;37.50;17.20;;;2.50;99.90;;;;;;5052078;28;20195;-40
2021/12/10 09:55:50;;;;;;;39.10;17.23;;;2.60;99.90;;;;;;5055591;28;20226;-40
2021/12/10 09:58:18;;;;;;;37.57;17.43;;;2.60;99.90;;;;;;5051300;28;20214;-41
2021/12/10 10:00:48;;;;;;;40.03;18.00;;;2.60;99.90;;;;;;5059145;28;20201;-41
2021/12/10 10:03:18;;;;;;;40.93;16.60;;;2.70;99.90;;;;;;5050140;28;20193;-41
2021/12/10 10:05:47;;;;;;;37.83;17.13;;;2.70;99.90;;;;;;5051682;28;20214;-40
2021/12/10 10:08:17;;;;;;;35.00;15.37;;;2.70;99.90;;;;;;5025938;28;20197;-40
2021/12/10 10:10:50;;;;;;;31.90;16.23;;;2.70;99.90;;;;;;5058298;28;20195;-39
2021/12/10 10:13:18;;;;;;;36.47;16.23;;;2.70;99.90;;;;;;5048575;28;20881;-39
2021/12/10 10:15:48;;;;;;;32.20;15.67;;;2.80;99.90;;;;;;5048485;28;20203;-39
2021/12/10 10:18:16;;;;;;;35.47;16.67;;;2.80;99.90;;;;;;5048842;28;20637;-40
2021/12/10 10:20:47;;;;;;;37.17;16.00;;;2.80;99.90;;;;;;5054188;28;20191;-39
2021/12/10 10:23:15;;;;;;;35.00;15.97;;;2.80;99.90;;;;;;5042564;28;20466;-39
2021/12/10 10:25:44;;;;;;;34.13;15.77;;;2.90;99.90;;;;;;5049232;28;20617;-39
2021/12/10 10:28:13;;;;;;;27.30;14.27;;;2.90;99.90;;;;;;5042860;28;20203;-39
2021/12/10 10:30:46;;;;;;;33.50;15.93;;;2.90;99.90;;;;;;5050678;28;20203;-40
2021/12/10 10:33:13;;;;;;;31.50;15.43;;;2.90;99.90;;;;;;5043148;28;20195;-40
2021/12/10 10:35:43;;;;;;;30.23;15.30;;;3.00;99.90;;;;;;5049300;28;20218;-41
2021/12/10 10:38:13;;;;;;;33.67;14.37;;;3.00;99.90;;;;;;5032062;28;20230;-39
2021/12/10 10:40:44;;;;;;;32.20;14.90;;;3.00;99.90;;;;;;5052640;28;20195;-39
2021/12/10 10:43:11;;;;;;;30.47;14.80;;;3.00;99.90;;;;;;5045172;28;20217;-40
2021/12/10 10:45:42;;;;;;;28.13;14.50;;;3.00;99.90;;;;;;5054611;28;20218;-39
2021/12/10 10:48:11;;;;;;;29.17;14.80;;;3.10;99.90;;;;;;5051184;28;20198;-43
2021/12/10 10:50:41;;;;;;;34.70;15.37;;;3.10;99.90;;;;;;5054407;28;20694;-40
2021/12/10 10:53:11;;;;;;;30.33;14.40;;;3.10;99.90;;;;;;5036990;28;20199;-40
2021/12/10 10:55:41;;;;;;;31.07;15.43;;;3.10;99.90;;;;;;5048785;28;20198;-40
2021/12/10 10:58:12;;;;;;;31.43;15.00;;;3.20;99.90;;;;;;5038969;28;20233;-39
2021/12/10 11:00:46;;;;;;;30.97;15.17;;;3.20;99.90;;;;;;5045365;28;20197;-40
2021/12/10 11:03:16;;;;;;;29.23;14.93;;;3.20;99.90;;;;;;5043545;28;20207;-40
2021/12/10 11:05:48;;;;;;;33.37;15.73;;;3.20;99.90;;;;;;5057935;28;20277;-40
2021/12/10 11:08:28;;;;;;;30.77;14.53;;;3.30;99.90;;;;;;5045438;28;20200;-40
2021/12/10 11:10:58;;;;;;;31.40;14.70;;;3.30;99.90;;;;;;5038328;28;20207;-39
2021/12/10 11:13:27;;;;;;;36.23;16.73;;;3.30;99.90;;;;;;5043585;28;20576;-39
2021/12/10 11:16:02;;;;;;;36.97;15.63;;;3.30;99.90;;;;;;5053187;28;20675;-39
2021/12/10 11:18:42;;;;;;;32.37;16.23;;;3.30;99.90;;;;;;5044947;28;20223;-39
2021/12/10 11:21:09;;;;;;;40.07;16.77;;;3.40;99.90;;;;;;5048761;28;20191;-39
2021/12/10 11:23:39;;;;;;;28.60;14.57;;;3.40;99.90;;;;;;5050734;28;20203;-39
2021/12/10 11:26:07;;;;;;;30.17;15.20;;;3.40;99.90;;;;;;5035067;28;20207;-43
2021/12/10 11:28:37;;;;;;;30.57;15.83;;;3.40;99.90;;;;;;5048290;28;20622;-40
2021/12/10 11:31:06;;;;;;;37.50;16.13;;;3.40;99.90;;;;;;5047056;28;20203;-40
2021/12/10 11:33:36;;;;;;;30.43;15.33;;;3.40;99.90;;;;;;5049350;28;20214;-40
2021/12/10 11:36:07;;;;;;;33.90;16.57;;;3.40;99.90;;;;;;5049707;28;20248;-40
2021/12/10 11:38:34;;;;;;;29.80;15.23;;;3.40;99.90;;;;;;5056741;28;20251;-40
2021/12/10 11:41:05;;;;;;;35.57;16.70;;;3.40;99.90;;;;;;5039074;28;20302;-40
2021/12/10 11:43:52;;;;;;;29.73;15.73;;;3.40;99.90;;;;;;5055981;28;20208;-40
2021/12/10 11:46:42;;;;;;;34.40;16.73;;;3.40;99.90;;;;;;5043630;28;21018;-41
2021/12/10 11:49:13;;;;;;;33.13;16.10;;;3.50;99.90;;;;;;5049125;28;20273;-40
2021/12/10 11:51:43;;;;;;;30.87;15.93;;;3.40;99.90;;;;;;5058441;28;20198;-40
2021/12/10 11:54:19;;;;;;;33.23;14.63;;;3.40;99.90;;;;;;5047614;28;20206;-40
2021/12/10 11:56:50;;;;;;;31.07;14.90;;;3.40;99.90;;;;;;5039256;28;20222;-40
2021/12/10 11:59:19;;;;;;;37.97;16.97;;;3.40;99.90;;;;;;5052396;28;20808;-41
2021/12/10 12:01:54;;;;;;;35.67;16.03;;;3.50;99.90;;;;;;5061018;28;20667;-41
2021/12/10 12:04:26;;;;;;;31.87;15.53;;;3.50;99.90;;;;;;5052240;28;20221;-40
2021/12/10 12:07:17;;;;;;;38.53;16.17;;;3.50;99.90;;;;;;5055069;28;20206;-40
2021/12/10 12:09:46;;;;;;;31.07;15.37;;;3.50;99.90;;;;;;5056127;28;20718;-41
2021/12/10 12:12:17;;;;;;;32.30;15.03;;;3.50;99.90;;;;;;5036933;28;20926;-39
2021/12/10 12:14:50;;;;;;;30.00;14.97;;;3.50;99.90;;;;;;5053624;28;20211;-39
2021/12/10 12:17:37;;;;;;;29.97;14.93;;;3.50;99.90;;;;;;5055646;28;20900;-40
2021/12/10 12:20:15;;;;;;;30.70;13.90;;;3.50;99.90;;;;;;5055747;28;20214;-43
2021/12/10 12:25:29;;;;;;;31.20;13.87;;;3.50;99.90;;;;;;5050551;28;20278;-39
2021/12/10 12:28:10;;;;;;;34.93;15.70;;;3.50;99.90;;;;;;5042885;28;20203;-39
2021/12/10 12:30:59;;;;;;;29.03;14.53;;;3.50;99.90;;;;;;5049597;28;20201;-39
2021/12/10 12:33:29;;;;;;;29.30;15.03;;;3.50;99.90;;;;;;5057167;28;20203;-39
2021/12/10 12:35:56;;;;;;;32.93;14.77;;;3.50;99.90;;;;;;5045091;28;20199;-39
2021/12/10 12:38:27;;;;;;;28.83;13.90;;;3.50;99.90;;;;;;5053281;28;20224;-40
2021/12/10 12:41:15;;;;;;;32.90;15.10;;;3.60;99.90;;;;;;5052849;28;20202;-39
2021/12/10 12:43:46;;;;;;;29.13;14.57;;;3.60;99.90;;;;;;5043128;28;20586;-41
2021/12/10 12:46:13;;;;;;;28.67;13.87;;;3.60;99.90;;;;;;5049830;28;20187;-39
2021/12/10 12:48:55;;;;;;;32.17;15.57;;;3.50;99.90;;;;;;5054737;28;20215;-39
2021/12/10 12:51:22;;;;;;;32.93;15.43;;;3.50;99.90;;;;;;5055731;28;20960;-39
2021/12/10 12:53:50;;;;;;;33.40;15.53;;;3.50;99.90;;;;;;5049025;28;20206;-42